sensor_id;sensor_type;location;lat;lon;timestamp;pressure;altitude;pressure_sealevel;temperature
15626;BMP180;7912;51.376;6.126;2023-02-22T00:02:04;101179.00;;;11.10
15626;BMP180;7912;51.376;6.126;2023-02-22T00:04:39;101177.00;;;11.10
15626;BMP180;7912;51.376;6.126;2023-02-22T00:07:06;101174.00;;;11.10
15626;BMP180;7912;51.376;6.126;2023-02-22T00:09:33;101169.00;;;11.10
15626;BMP180;7912;51.376;6.126;2023-02-22T00:12:00;101167.00;;;11.10
15626;BMP180;7912;51.376;6.126;2023-02-22T00:14:28;101173.00;;;11.20
15626;BMP180;7912;51.376;6.126;2023-02-22T00:16:55;101164.00;;;11.20
15626;BMP180;7912;51.376;6.126;2023-02-22T00:19:26;101169.00;;;11.10
15626;BMP180;7912;51.376;6.126;2023-02-22T00:21:56;101168.00;;;11.10
15626;BMP180;7912;51.376;6.126;2023-02-22T00:24:24;101157.00;;;11.20
15626;BMP180;7912;51.376;6.126;2023-02-22T00:26:53;101164.00;;;11.10
15626;BMP180;7912;51.376;6.126;2023-02-22T00:29:24;101158.00;;;11.20
15626;BMP180;7912;51.376;6.126;2023-02-22T00:31:51;101154.00;;;11.20
15626;BMP180;7912;51.376;6.126;2023-02-22T00:34:19;101168.00;;;11.20
15626;BMP180;7912;51.376;6.126;2023-02-22T00:36:48;101163.00;;;11.20
15626;BMP180;7912;51.376;6.126;2023-02-22T00:39:16;101158.00;;;11.30
15626;BMP180;7912;51.376;6.126;2023-02-22T00:41:43;101165.00;;;11.30
15626;BMP180;7912;51.376;6.126;2023-02-22T00:44:11;101160.00;;;11.30
15626;BMP180;7912;51.376;6.126;2023-02-22T00:46:38;101167.00;;;11.30
15626;BMP180;7912;51.376;6.126;2023-02-22T00:49:06;101166.00;;;11.40
15626;BMP180;7912;51.376;6.126;2023-02-22T00:51:33;101158.00;;;11.30
15626;BMP180;7912;51.376;6.126;2023-02-22T00:54:00;101164.00;;;11.40
15626;BMP180;7912;51.376;6.126;2023-02-22T00:56:32;101164.00;;;11.30
15626;BMP180;7912;51.376;6.126;2023-02-22T00:59:00;101161.00;;;11.40
15626;BMP180;7912;51.376;6.126;2023-02-22T01:01:27;101157.00;;;11.40
15626;BMP180;7912;51.376;6.126;2023-02-22T01:03:58;101155.00;;;11.40
15626;BMP180;7912;51.376;6.126;2023-02-22T01:06:25;101146.00;;;11.40
15626;BMP180;7912;51.376;6.126;2023-02-22T01:08:52;101146.00;;;11.40
15626;BMP180;7912;51.376;6.126;2023-02-22T01:11:19;101140.00;;;11.40
15626;BMP180;7912;51.376;6.126;2023-02-22T01:13:48;101142.00;;;11.40
15626;BMP180;7912;51.376;6.126;2023-02-22T01:16:15;101136.00;;;11.40
15626;BMP180;7912;51.376;6.126;2023-02-22T01:18:42;101124.00;;;11.40
15626;BMP180;7912;51.376;6.126;2023-02-22T01:21:09;101126.00;;;11.50
15626;BMP180;7912;51.376;6.126;2023-02-22T01:23:36;101119.00;;;11.40
15626;BMP180;7912;51.376;6.126;2023-02-22T01:26:04;101110.00;;;11.40
15626;BMP180;7912;51.376;6.126;2023-02-22T01:28:33;101117.00;;;11.40
15626;BMP180;7912;51.376;6.126;2023-02-22T01:31:00;101116.00;;;11.40
15626;BMP180;7912;51.376;6.126;2023-02-22T01:33:28;101112.00;;;11.40
15626;BMP180;7912;51.376;6.126;2023-02-22T01:35:56;101108.00;;;11.40
15626;BMP180;7912;51.376;6.126;2023-02-22T01:38:24;101115.00;;;11.30
15626;BMP180;7912;51.376;6.126;2023-02-22T01:40:51;101110.00;;;11.40
15626;BMP180;7912;51.376;6.126;2023-02-22T01:43:31;101109.00;;;11.40
15626;BMP180;7912;51.376;6.126;2023-02-22T01:46:23;101108.00;;;11.40
15626;BMP180;7912;51.376;6.126;2023-02-22T01:48:58;101111.00;;;11.40
15626;BMP180;7912;51.376;6.126;2023-02-22T01:51:33;101104.00;;;11.30
15626;BMP180;7912;51.376;6.126;2023-02-22T01:54:16;101100.00;;;11.30
15626;BMP180;7912;51.376;6.126;2023-02-22T01:57:42;101106.00;;;11.20
15626;BMP180;7912;51.376;6.126;2023-02-22T02:00:12;101101.00;;;11.20
15626;BMP180;7912;51.376;6.126;2023-02-22T02:02:45;101095.00;;;11.20
15626;BMP180;7912;51.376;6.126;2023-02-22T02:05:14;101091.00;;;11.20
15626;BMP180;7912;51.376;6.126;2023-02-22T02:07:44;101103.00;;;11.20
15626;BMP180;7912;51.376;6.126;2023-02-22T02:10:14;101096.00;;;11.20
15626;BMP180;7912;51.376;6.126;2023-02-22T02:12:47;101089.00;;;11.20
15626;BMP180;7912;51.376;6.126;2023-02-22T02:15:31;101085.00;;;11.10
15626;BMP180;7912;51.376;6.126;2023-02-22T02:18:11;101094.00;;;11.20
15626;BMP180;7912;51.376;6.126;2023-02-22T02:26:57;101070.00;;;11.20
15626;BMP180;7912;51.376;6.126;2023-02-22T02:34:25;101075.00;;;11.20
15626;BMP180;7912;51.376;6.126;2023-02-22T02:40:05;101068.00;;;11.10
15626;BMP180;7912;51.376;6.126;2023-02-22T02:42:48;101057.00;;;11.10
15626;BMP180;7912;51.376;6.126;2023-02-22T02:45:37;101051.00;;;11.10
15626;BMP180;7912;51.376;6.126;2023-02-22T02:48:11;101049.00;;;11.10
15626;BMP180;7912;51.376;6.126;2023-02-22T02:50:47;101040.00;;;11.10
15626;BMP180;7912;51.376;6.126;2023-02-22T02:53:21;101046.00;;;11.10
15626;BMP180;7912;51.376;6.126;2023-02-22T02:55:51;101037.00;;;11.20
15626;BMP180;7912;51.376;6.126;2023-02-22T02:58:22;101042.00;;;11.10
15626;BMP180;7912;51.376;6.126;2023-02-22T03:00:58;101046.00;;;11.10
15626;BMP180;7912;51.376;6.126;2023-02-22T03:03:59;101045.00;;;11.10
15626;BMP180;7912;51.376;6.126;2023-02-22T03:07:22;101041.00;;;11.10
15626;BMP180;7912;51.376;6.126;2023-02-22T03:10:17;101038.00;;;11.10
15626;BMP180;7912;51.376;6.126;2023-02-22T03:19:31;101038.00;;;11.10
15626;BMP180;7912;51.376;6.126;2023-02-22T03:22:07;101025.00;;;11.00
15626;BMP180;7912;51.376;6.126;2023-02-22T03:24:41;101028.00;;;11.00
15626;BMP180;7912;51.376;6.126;2023-02-22T03:27:20;101040.00;;;11.10
15626;BMP180;7912;51.376;6.126;2023-02-22T03:29:54;101038.00;;;11.10
15626;BMP180;7912;51.376;6.126;2023-02-22T03:32:30;101027.00;;;11.10
15626;BMP180;7912;51.376;6.126;2023-02-22T03:35:17;101029.00;;;11.10
15626;BMP180;7912;51.376;6.126;2023-02-22T03:37:48;101023.00;;;11.10
15626;BMP180;7912;51.376;6.126;2023-02-22T03:40:29;101027.00;;;11.00
15626;BMP180;7912;51.376;6.126;2023-02-22T03:43:07;101025.00;;;11.10
15626;BMP180;7912;51.376;6.126;2023-02-22T03:45:39;101019.00;;;11.10
15626;BMP180;7912;51.376;6.126;2023-02-22T03:48:21;101025.00;;;11.00
15626;BMP180;7912;51.376;6.126;2023-02-22T03:50:50;101018.00;;;11.00
15626;BMP180;7912;51.376;6.126;2023-02-22T03:53:19;101034.00;;;11.10
15626;BMP180;7912;51.376;6.126;2023-02-22T03:55:50;101022.00;;;11.10
15626;BMP180;7912;51.376;6.126;2023-02-22T03:58:23;101021.00;;;11.10
15626;BMP180;7912;51.376;6.126;2023-02-22T04:00:51;101014.00;;;11.10
15626;BMP180;7912;51.376;6.126;2023-02-22T04:03:20;101016.00;;;11.10
15626;BMP180;7912;51.376;6.126;2023-02-22T04:05:48;101016.00;;;11.10
15626;BMP180;7912;51.376;6.126;2023-02-22T04:08:16;101007.00;;;11.10
15626;BMP180;7912;51.376;6.126;2023-02-22T04:10:43;101011.00;;;11.10
15626;BMP180;7912;51.376;6.126;2023-02-22T04:13:10;100999.00;;;11.10
15626;BMP180;7912;51.376;6.126;2023-02-22T04:15:41;101001.00;;;11.10
15626;BMP180;7912;51.376;6.126;2023-02-22T04:18:08;100995.00;;;11.00
15626;BMP180;7912;51.376;6.126;2023-02-22T04:20:35;100992.00;;;11.00
15626;BMP180;7912;51.376;6.126;2023-02-22T04:23:02;100986.00;;;11.00
15626;BMP180;7912;51.376;6.126;2023-02-22T04:25:30;100986.00;;;10.90
15626;BMP180;7912;51.376;6.126;2023-02-22T04:27:57;100988.00;;;10.90
15626;BMP180;7912;51.376;6.126;2023-02-22T04:30:24;100991.00;;;10.90
15626;BMP180;7912;51.376;6.126;2023-02-22T04:32:51;100986.00;;;10.80
15626;BMP180;7912;51.376;6.126;2023-02-22T04:35:18;100978.00;;;10.80
15626;BMP180;7912;51.376;6.126;2023-02-22T04:37:46;100970.00;;;10.80
15626;BMP180;7912;51.376;6.126;2023-02-22T04:40:16;100972.00;;;10.80
15626;BMP180;7912;51.376;6.126;2023-02-22T04:42:46;100961.00;;;10.80
15626;BMP180;7912;51.376;6.126;2023-02-22T04:45:14;100977.00;;;10.90
15626;BMP180;7912;51.376;6.126;2023-02-22T04:47:41;100972.00;;;10.80
15626;BMP180;7912;51.376;6.126;2023-02-22T04:50:10;100966.00;;;10.80
15626;BMP180;7912;51.376;6.126;2023-02-22T04:52:38;100975.00;;;10.80
15626;BMP180;7912;51.376;6.126;2023-02-22T04:55:06;100979.00;;;10.80
15626;BMP180;7912;51.376;6.126;2023-02-22T04:57:34;100962.00;;;10.70
15626;BMP180;7912;51.376;6.126;2023-02-22T05:00:01;100969.00;;;10.70
15626;BMP180;7912;51.376;6.126;2023-02-22T05:02:29;100960.00;;;10.70
15626;BMP180;7912;51.376;6.126;2023-02-22T05:04:56;100963.00;;;10.70
15626;BMP180;7912;51.376;6.126;2023-02-22T05:07:23;100954.00;;;10.70
15626;BMP180;7912;51.376;6.126;2023-02-22T05:09:50;100943.00;;;10.70
15626;BMP180;7912;51.376;6.126;2023-02-22T05:12:17;100950.00;;;10.70
15626;BMP180;7912;51.376;6.126;2023-02-22T05:14:45;100948.00;;;10.70
15626;BMP180;7912;51.376;6.126;2023-02-22T05:17:12;100936.00;;;10.70
15626;BMP180;7912;51.376;6.126;2023-02-22T05:19:39;100947.00;;;10.60
15626;BMP180;7912;51.376;6.126;2023-02-22T05:22:07;100944.00;;;10.60
15626;BMP180;7912;51.376;6.126;2023-02-22T05:24:35;100936.00;;;10.60
15626;BMP180;7912;51.376;6.126;2023-02-22T05:27:02;100938.00;;;10.60
15626;BMP180;7912;51.376;6.126;2023-02-22T05:29:29;100939.00;;;10.60
15626;BMP180;7912;51.376;6.126;2023-02-22T05:31:56;100939.00;;;10.60
15626;BMP180;7912;51.376;6.126;2023-02-22T05:34:24;100938.00;;;10.60
15626;BMP180;7912;51.376;6.126;2023-02-22T05:36:51;100940.00;;;10.60
15626;BMP180;7912;51.376;6.126;2023-02-22T05:39:18;100929.00;;;10.50
15626;BMP180;7912;51.376;6.126;2023-02-22T05:41:45;100935.00;;;10.50
15626;BMP180;7912;51.376;6.126;2023-02-22T05:44:13;100935.00;;;10.50
15626;BMP180;7912;51.376;6.126;2023-02-22T05:46:40;100923.00;;;10.50
15626;BMP180;7912;51.376;6.126;2023-02-22T05:49:07;100933.00;;;10.40
15626;BMP180;7912;51.376;6.126;2023-02-22T05:51:34;100919.00;;;10.40
15626;BMP180;7912;51.376;6.126;2023-02-22T05:54:01;100924.00;;;10.40
15626;BMP180;7912;51.376;6.126;2023-02-22T05:56:29;100915.00;;;10.40
15626;BMP180;7912;51.376;6.126;2023-02-22T05:58:56;100923.00;;;10.40
15626;BMP180;7912;51.376;6.126;2023-02-22T06:01:24;100911.00;;;10.40
15626;BMP180;7912;51.376;6.126;2023-02-22T06:03:52;100915.00;;;10.30
15626;BMP180;7912;51.376;6.126;2023-02-22T06:06:19;100915.00;;;10.30
15626;BMP180;7912;51.376;6.126;2023-02-22T06:08:48;100915.00;;;10.30
15626;BMP180;7912;51.376;6.126;2023-02-22T06:11:15;100912.00;;;10.30
15626;BMP180;7912;51.376;6.126;2023-02-22T06:13:52;100905.00;;;10.30
15626;BMP180;7912;51.376;6.126;2023-02-22T06:16:21;100924.00;;;10.30
15626;BMP180;7912;51.376;6.126;2023-02-22T06:19:04;100896.00;;;10.20
15626;BMP180;7912;51.376;6.126;2023-02-22T06:21:39;100907.00;;;10.10
15626;BMP180;7912;51.376;6.126;2023-02-22T06:24:08;100915.00;;;10.10
15626;BMP180;7912;51.376;6.126;2023-02-22T06:30:45;100908.00;;;10.10
15626;BMP180;7912;51.376;6.126;2023-02-22T06:33:12;100904.00;;;10.10
15626;BMP180;7912;51.376;6.126;2023-02-22T06:35:40;100911.00;;;10.10
15626;BMP180;7912;51.376;6.126;2023-02-22T06:38:07;100908.00;;;10.00
15626;BMP180;7912;51.376;6.126;2023-02-22T06:40:35;100902.00;;;10.10
15626;BMP180;7912;51.376;6.126;2023-02-22T06:43:02;100907.00;;;10.00
15626;BMP180;7912;51.376;6.126;2023-02-22T06:45:30;100902.00;;;10.00
15626;BMP180;7912;51.376;6.126;2023-02-22T06:47:57;100901.00;;;10.00
15626;BMP180;7912;51.376;6.126;2023-02-22T06:50:29;100897.00;;;10.00
15626;BMP180;7912;51.376;6.126;2023-02-22T06:52:57;100904.00;;;9.90
15626;BMP180;7912;51.376;6.126;2023-02-22T06:55:31;100889.00;;;9.90
15626;BMP180;7912;51.376;6.126;2023-02-22T06:58:00;100908.00;;;9.90
15626;BMP180;7912;51.376;6.126;2023-02-22T07:00:29;100894.00;;;9.80
15626;BMP180;7912;51.376;6.126;2023-02-22T07:12:00;100901.00;;;9.80
15626;BMP180;7912;51.376;6.126;2023-02-22T07:14:30;100898.00;;;9.80
15626;BMP180;7912;51.376;6.126;2023-02-22T07:16:58;100885.00;;;9.80
15626;BMP180;7912;51.376;6.126;2023-02-22T07:19:25;100892.00;;;9.80
15626;BMP180;7912;51.376;6.126;2023-02-22T07:21:52;100896.00;;;9.90
15626;BMP180;7912;51.376;6.126;2023-02-22T07:24:26;100894.00;;;9.90
15626;BMP180;7912;51.376;6.126;2023-02-22T07:26:56;100894.00;;;10.00
15626;BMP180;7912;51.376;6.126;2023-02-22T07:29:23;100891.00;;;10.00
15626;BMP180;7912;51.376;6.126;2023-02-22T07:31:53;100890.00;;;10.00
15626;BMP180;7912;51.376;6.126;2023-02-22T07:34:23;100898.00;;;10.00
15626;BMP180;7912;51.376;6.126;2023-02-22T07:36:51;100895.00;;;10.00
15626;BMP180;7912;51.376;6.126;2023-02-22T07:39:18;100869.00;;;10.00
15626;BMP180;7912;51.376;6.126;2023-02-22T07:41:46;100890.00;;;10.10
15626;BMP180;7912;51.376;6.126;2023-02-22T07:44:14;100884.00;;;10.10
15626;BMP180;7912;51.376;6.126;2023-02-22T07:46:46;100895.00;;;10.10
15626;BMP180;7912;51.376;6.126;2023-02-22T07:49:14;100884.00;;;10.20
15626;BMP180;7912;51.376;6.126;2023-02-22T07:51:41;100882.00;;;10.30
15626;BMP180;7912;51.376;6.126;2023-02-22T07:54:08;100889.00;;;10.30
15626;BMP180;7912;51.376;6.126;2023-02-22T07:56:36;100884.00;;;10.30
15626;BMP180;7912;51.376;6.126;2023-02-22T07:59:03;100897.00;;;10.30
15626;BMP180;7912;51.376;6.126;2023-02-22T08:01:30;100879.00;;;10.30
15626;BMP180;7912;51.376;6.126;2023-02-22T08:03:57;100888.00;;;10.30
15626;BMP180;7912;51.376;6.126;2023-02-22T08:06:25;100892.00;;;10.40
15626;BMP180;7912;51.376;6.126;2023-02-22T08:08:54;100891.00;;;10.40
15626;BMP180;7912;51.376;6.126;2023-02-22T08:11:21;100884.00;;;10.50
15626;BMP180;7912;51.376;6.126;2023-02-22T08:13:48;100882.00;;;10.50
15626;BMP180;7912;51.376;6.126;2023-02-22T08:16:16;100882.00;;;10.60
15626;BMP180;7912;51.376;6.126;2023-02-22T08:18:43;100879.00;;;10.70
15626;BMP180;7912;51.376;6.126;2023-02-22T08:21:10;100896.00;;;10.80
15626;BMP180;7912;51.376;6.126;2023-02-22T08:23:37;100883.00;;;10.80
15626;BMP180;7912;51.376;6.126;2023-02-22T08:26:10;100877.00;;;10.90
15626;BMP180;7912;51.376;6.126;2023-02-22T08:28:41;100877.00;;;11.00
15626;BMP180;7912;51.376;6.126;2023-02-22T08:31:09;100884.00;;;11.10
15626;BMP180;7912;51.376;6.126;2023-02-22T08:33:36;100880.00;;;11.20
15626;BMP180;7912;51.376;6.126;2023-02-22T08:36:04;100887.00;;;11.30
15626;BMP180;7912;51.376;6.126;2023-02-22T08:38:31;100872.00;;;11.30
15626;BMP180;7912;51.376;6.126;2023-02-22T08:40:59;100875.00;;;11.30
15626;BMP180;7912;51.376;6.126;2023-02-22T08:43:27;100877.00;;;11.40
15626;BMP180;7912;51.376;6.126;2023-02-22T08:45:54;100883.00;;;11.40
15626;BMP180;7912;51.376;6.126;2023-02-22T08:48:23;100887.00;;;11.50
15626;BMP180;7912;51.376;6.126;2023-02-22T08:50:51;100883.00;;;11.60
15626;BMP180;7912;51.376;6.126;2023-02-22T08:53:18;100880.00;;;11.70
15626;BMP180;7912;51.376;6.126;2023-02-22T08:55:46;100883.00;;;11.70
15626;BMP180;7912;51.376;6.126;2023-02-22T08:58:13;100877.00;;;11.80
15626;BMP180;7912;51.376;6.126;2023-02-22T09:00:41;100872.00;;;11.90
15626;BMP180;7912;51.376;6.126;2023-02-22T09:03:13;100884.00;;;12.10
15626;BMP180;7912;51.376;6.126;2023-02-22T09:05:43;100877.00;;;12.20
15626;BMP180;7912;51.376;6.126;2023-02-22T09:08:14;100868.00;;;12.30
15626;BMP180;7912;51.376;6.126;2023-02-22T09:10:42;100866.00;;;12.50
15626;BMP180;7912;51.376;6.126;2023-02-22T09:13:11;100864.00;;;12.60
15626;BMP180;7912;51.376;6.126;2023-02-22T09:15:39;100858.00;;;12.70
15626;BMP180;7912;51.376;6.126;2023-02-22T09:18:10;100863.00;;;12.80
15626;BMP180;7912;51.376;6.126;2023-02-22T09:20:39;100863.00;;;12.80
15626;BMP180;7912;51.376;6.126;2023-02-22T09:23:12;100849.00;;;12.90
15626;BMP180;7912;51.376;6.126;2023-02-22T09:25:40;100856.00;;;13.00
15626;BMP180;7912;51.376;6.126;2023-02-22T09:28:07;100837.00;;;13.10
15626;BMP180;7912;51.376;6.126;2023-02-22T09:30:35;100844.00;;;13.20
15626;BMP180;7912;51.376;6.126;2023-02-22T09:33:06;100849.00;;;13.30
15626;BMP180;7912;51.376;6.126;2023-02-22T09:35:40;100844.00;;;13.40
15626;BMP180;7912;51.376;6.126;2023-02-22T09:38:09;100828.00;;;13.50
15626;BMP180;7912;51.376;6.126;2023-02-22T09:40:50;100839.00;;;13.60
15626;BMP180;7912;51.376;6.126;2023-02-22T09:46:29;100829.00;;;13.80
15626;BMP180;7912;51.376;6.126;2023-02-22T09:52:02;100819.00;;;14.00
15626;BMP180;7912;51.376;6.126;2023-02-22T09:55:08;100825.00;;;14.10
15626;BMP180;7912;51.376;6.126;2023-02-22T09:57:41;100815.00;;;14.30
15626;BMP180;7912;51.376;6.126;2023-02-22T10:00:20;100805.00;;;14.40
15626;BMP180;7912;51.376;6.126;2023-02-22T10:03:26;100803.00;;;14.50
15626;BMP180;7912;51.376;6.126;2023-02-22T10:06:07;100799.00;;;14.60
15626;BMP180;7912;51.376;6.126;2023-02-22T10:08:41;100800.00;;;14.70
15626;BMP180;7912;51.376;6.126;2023-02-22T10:11:48;100797.00;;;14.90
15626;BMP180;7912;51.376;6.126;2023-02-22T10:14:36;100797.00;;;15.00
15626;BMP180;7912;51.376;6.126;2023-02-22T10:20:17;100792.00;;;15.50
15626;BMP180;7912;51.376;6.126;2023-02-22T10:23:10;100786.00;;;15.80
15626;BMP180;7912;51.376;6.126;2023-02-22T10:25:43;100787.00;;;16.10
15626;BMP180;7912;51.376;6.126;2023-02-22T10:28:24;100779.00;;;16.40
15626;BMP180;7912;51.376;6.126;2023-02-22T10:31:01;100780.00;;;16.70
15626;BMP180;7912;51.376;6.126;2023-02-22T10:33:38;100778.00;;;17.00
15626;BMP180;7912;51.376;6.126;2023-02-22T10:36:18;100773.00;;;17.20
15626;BMP180;7912;51.376;6.126;2023-02-22T10:39:12;100783.00;;;17.40
15626;BMP180;7912;51.376;6.126;2023-02-22T10:41:50;100783.00;;;17.60
15626;BMP180;7912;51.376;6.126;2023-02-22T10:44:21;100782.00;;;17.80
15626;BMP180;7912;51.376;6.126;2023-02-22T10:46:49;100771.00;;;18.10
15626;BMP180;7912;51.376;6.126;2023-02-22T10:49:22;100771.00;;;18.40
15626;BMP180;7912;51.376;6.126;2023-02-22T10:52:03;100768.00;;;18.70
15626;BMP180;7912;51.376;6.126;2023-02-22T10:54:38;100771.00;;;19.00
15626;BMP180;7912;51.376;6.126;2023-02-22T10:57:10;100756.00;;;19.20
15626;BMP180;7912;51.376;6.126;2023-02-22T10:59:40;100769.00;;;19.50
15626;BMP180;7912;51.376;6.126;2023-02-22T11:02:29;100764.00;;;19.60
15626;BMP180;7912;51.376;6.126;2023-02-22T11:05:00;100765.00;;;19.90
15626;BMP180;7912;51.376;6.126;2023-02-22T11:07:35;100770.00;;;20.20
15626;BMP180;7912;51.376;6.126;2023-02-22T11:10:07;100766.00;;;20.30
15626;BMP180;7912;51.376;6.126;2023-02-22T11:12:40;100758.00;;;20.60
15626;BMP180;7912;51.376;6.126;2023-02-22T11:17:56;100757.00;;;21.40
15626;BMP180;7912;51.376;6.126;2023-02-22T11:20:33;100756.00;;;21.80
15626;BMP180;7912;51.376;6.126;2023-02-22T11:23:04;100757.00;;;22.00
15626;BMP180;7912;51.376;6.126;2023-02-22T11:25:37;100759.00;;;22.00
15626;BMP180;7912;51.376;6.126;2023-02-22T11:28:26;100754.00;;;22.10
15626;BMP180;7912;51.376;6.126;2023-02-22T11:31:16;100756.00;;;22.20
15626;BMP180;7912;51.376;6.126;2023-02-22T11:33:56;100753.00;;;22.20
15626;BMP180;7912;51.376;6.126;2023-02-22T11:39:27;100747.00;;;22.10
15626;BMP180;7912;51.376;6.126;2023-02-22T11:41:57;100746.00;;;22.10
15626;BMP180;7912;51.376;6.126;2023-02-22T11:44:28;100742.00;;;22.20
15626;BMP180;7912;51.376;6.126;2023-02-22T11:46:59;100734.00;;;22.40
15626;BMP180;7912;51.376;6.126;2023-02-22T11:49:40;100739.00;;;22.60
15626;BMP180;7912;51.376;6.126;2023-02-22T11:52:41;100741.00;;;22.70
15626;BMP180;7912;51.376;6.126;2023-02-22T11:55:22;100730.00;;;22.70
15626;BMP180;7912;51.376;6.126;2023-02-22T11:58:35;100731.00;;;22.70
15626;BMP180;7912;51.376;6.126;2023-02-22T12:09:33;100728.00;;;22.40
15626;BMP180;7912;51.376;6.126;2023-02-22T12:18:29;100720.00;;;22.00
15626;BMP180;7912;51.376;6.126;2023-02-22T12:21:08;100730.00;;;21.90
15626;BMP180;7912;51.376;6.126;2023-02-22T12:23:54;100733.00;;;21.90
15626;BMP180;7912;51.376;6.126;2023-02-22T12:26:27;100732.00;;;21.90
15626;BMP180;7912;51.376;6.126;2023-02-22T12:29:17;100736.00;;;22.00
15626;BMP180;7912;51.376;6.126;2023-02-22T12:49:24;100731.00;;;22.20
15626;BMP180;7912;51.376;6.126;2023-02-22T12:52:14;100733.00;;;22.00
15626;BMP180;7912;51.376;6.126;2023-02-22T12:55:03;100738.00;;;22.00
15626;BMP180;7912;51.376;6.126;2023-02-22T12:57:48;100723.00;;;22.10
15626;BMP180;7912;51.376;6.126;2023-02-22T13:02:56;100735.00;;;22.30
15626;BMP180;7912;51.376;6.126;2023-02-22T13:05:27;100738.00;;;22.30
15626;BMP180;7912;51.376;6.126;2023-02-22T13:08:16;100731.00;;;22.20
15626;BMP180;7912;51.376;6.126;2023-02-22T13:11:19;100732.00;;;21.90
15626;BMP180;7912;51.376;6.126;2023-02-22T13:17:17;100737.00;;;21.40
15626;BMP180;7912;51.376;6.126;2023-02-22T13:27:47;100720.00;;;21.10
15626;BMP180;7912;51.376;6.126;2023-02-22T13:30:24;100731.00;;;21.00
15626;BMP180;7912;51.376;6.126;2023-02-22T13:36:23;100723.00;;;21.10
15626;BMP180;7912;51.376;6.126;2023-02-22T13:46:13;100724.00;;;21.30
15626;BMP180;7912;51.376;6.126;2023-02-22T13:51:48;100715.00;;;21.50
15626;BMP180;7912;51.376;6.126;2023-02-22T13:54:18;100710.00;;;21.50
15626;BMP180;7912;51.376;6.126;2023-02-22T13:56:49;100714.00;;;21.50
15626;BMP180;7912;51.376;6.126;2023-02-22T14:01:50;100719.00;;;21.60
15626;BMP180;7912;51.376;6.126;2023-02-22T14:07:01;100710.00;;;21.40
15626;BMP180;7912;51.376;6.126;2023-02-22T14:09:56;100712.00;;;21.40
15626;BMP180;7912;51.376;6.126;2023-02-22T14:15:18;100719.00;;;21.30
15626;BMP180;7912;51.376;6.126;2023-02-22T14:20:32;100713.00;;;21.10
15626;BMP180;7912;51.376;6.126;2023-02-22T14:23:28;100721.00;;;20.90
15626;BMP180;7912;51.376;6.126;2023-02-22T14:34:53;100732.00;;;20.20
15626;BMP180;7912;51.376;6.126;2023-02-22T14:37:37;100732.00;;;20.00
15626;BMP180;7912;51.376;6.126;2023-02-22T14:40:26;100729.00;;;19.80
15626;BMP180;7912;51.376;6.126;2023-02-22T14:43:11;100742.00;;;19.60
15626;BMP180;7912;51.376;6.126;2023-02-22T14:45:52;100741.00;;;19.40
15626;BMP180;7912;51.376;6.126;2023-02-22T14:51:34;100745.00;;;19.10
15626;BMP180;7912;51.376;6.126;2023-02-22T14:54:34;100751.00;;;19.00
15626;BMP180;7912;51.376;6.126;2023-02-22T14:57:36;100743.00;;;18.80
15626;BMP180;7912;51.376;6.126;2023-02-22T15:00:20;100746.00;;;18.70
15626;BMP180;7912;51.376;6.126;2023-02-22T15:02:59;100744.00;;;18.70
15626;BMP180;7912;51.376;6.126;2023-02-22T15:05:34;100745.00;;;18.60
15626;BMP180;7912;51.376;6.126;2023-02-22T15:08:07;100748.00;;;18.50
15626;BMP180;7912;51.376;6.126;2023-02-22T15:10:50;100745.00;;;18.50
15626;BMP180;7912;51.376;6.126;2023-02-22T15:13:26;100750.00;;;18.50
15626;BMP180;7912;51.376;6.126;2023-02-22T15:15:58;100746.00;;;18.50
15626;BMP180;7912;51.376;6.126;2023-02-22T15:18:51;100755.00;;;18.50
15626;BMP180;7912;51.376;6.126;2023-02-22T15:21:23;100751.00;;;18.40
15626;BMP180;7912;51.376;6.126;2023-02-22T15:23:59;100752.00;;;18.30
15626;BMP180;7912;51.376;6.126;2023-02-22T15:26:39;100749.00;;;18.30
15626;BMP180;7912;51.376;6.126;2023-02-22T15:29:26;100761.00;;;18.20
15626;BMP180;7912;51.376;6.126;2023-02-22T15:31:54;100752.00;;;18.10
15626;BMP180;7912;51.376;6.126;2023-02-22T15:34:32;100751.00;;;18.10
15626;BMP180;7912;51.376;6.126;2023-02-22T15:37:24;100760.00;;;18.10
15626;BMP180;7912;51.376;6.126;2023-02-22T15:40:07;100758.00;;;18.00
15626;BMP180;7912;51.376;6.126;2023-02-22T15:42:52;100766.00;;;18.00
15626;BMP180;7912;51.376;6.126;2023-02-22T15:45:22;100767.00;;;17.90
15626;BMP180;7912;51.376;6.126;2023-02-22T15:47:55;100772.00;;;17.70
15626;BMP180;7912;51.376;6.126;2023-02-22T15:50:29;100774.00;;;17.70
15626;BMP180;7912;51.376;6.126;2023-02-22T15:53:02;100775.00;;;17.60
15626;BMP180;7912;51.376;6.126;2023-02-22T15:55:39;100771.00;;;17.50
15626;BMP180;7912;51.376;6.126;2023-02-22T15:58:25;100772.00;;;17.40
15626;BMP180;7912;51.376;6.126;2023-02-22T16:01:06;100785.00;;;17.30
15626;BMP180;7912;51.376;6.126;2023-02-22T16:06:30;100782.00;;;17.10
15626;BMP180;7912;51.376;6.126;2023-02-22T16:09:20;100785.00;;;17.00
15626;BMP180;7912;51.376;6.126;2023-02-22T16:15:01;100785.00;;;16.80
15626;BMP180;7912;51.376;6.126;2023-02-22T16:17:38;100794.00;;;16.70
15626;BMP180;7912;51.376;6.126;2023-02-22T16:22:56;100794.00;;;16.50
15626;BMP180;7912;51.376;6.126;2023-02-22T16:25:32;100793.00;;;16.40
15626;BMP180;7912;51.376;6.126;2023-02-22T16:28:25;100800.00;;;16.30
15626;BMP180;7912;51.376;6.126;2023-02-22T16:30:57;100804.00;;;16.20
15626;BMP180;7912;51.376;6.126;2023-02-22T16:33:25;100797.00;;;16.10
15626;BMP180;7912;51.376;6.126;2023-02-22T16:35:55;100795.00;;;16.00
15626;BMP180;7912;51.376;6.126;2023-02-22T16:38:23;100798.00;;;16.00
15626;BMP180;7912;51.376;6.126;2023-02-22T16:40:55;100801.00;;;15.80
15626;BMP180;7912;51.376;6.126;2023-02-22T16:43:30;100797.00;;;15.80
15626;BMP180;7912;51.376;6.126;2023-02-22T16:46:03;100800.00;;;15.70
15626;BMP180;7912;51.376;6.126;2023-02-22T16:48:33;100799.00;;;15.60
15626;BMP180;7912;51.376;6.126;2023-02-22T16:51:24;100795.00;;;15.50
15626;BMP180;7912;51.376;6.126;2023-02-22T16:53:54;100794.00;;;15.40
15626;BMP180;7912;51.376;6.126;2023-02-22T16:56:29;100805.00;;;15.40
15626;BMP180;7912;51.376;6.126;2023-02-22T16:59:04;100803.00;;;15.30
15626;BMP180;7912;51.376;6.126;2023-02-22T17:01:32;100797.00;;;15.30
15626;BMP180;7912;51.376;6.126;2023-02-22T17:04:01;100810.00;;;15.20
15626;BMP180;7912;51.376;6.126;2023-02-22T17:07:06;100809.00;;;15.10